Time;durP1;ratioP1;P1;durP2;ratioP2;P2;SDS_P1;SDS_P2;PMS_P1;PMS_P2;Temp;Humidity;BMP_temperature;BMP_pressure;BME280_temperature;BME280_humidity;BME280_pressure;Samples;Min_cycle;Max_cycle;Signal;HPM_P1;HPM_P2
2023/06/16 00:10:07;;;;;;;;;;;;;;;;;;;;;
2023/06/16 00:29:09;;;;;;;6.65;3.30;;;;;;;;;;6202973;23;20005;-94
2023/06/16 00:35:24;;;;;;;9.05;3.35;;;;;;;;;;6159618;23;20023;-96
2023/06/16 01:00:14;;;;;;;;;;;;;;;;;;;;;
2023/06/16 01:02:55;;;;;;;7.70;3.35;;;;;;;;;;6234213;22;20035;-94
2023/06/16 01:05:25;;;;;;;10.20;3.10;;;;;;;;;;6274200;22;20015;-94
2023/06/16 01:08:21;;;;;;;;;;;;;;;;;;;;;
2023/06/16 01:11:28;;;;;;;11.30;3.50;;;;;;;;;;6294193;22;19996;-96
2023/06/16 01:16:50;;;;;;;6.03;2.72;;;;;;;;;;6274755;22;20015;-94
2023/06/16 01:19:45;;;;;;;6.07;3.03;;;;;;;;;;6258971;22;20011;-95
2023/06/16 01:22:43;;;;;;;5.20;3.10;;;;;;;;;;6113921;23;19998;-95
2023/06/16 01:25:48;;;;;;;;;;;;;;;;;;;;;
2023/06/16 01:28:29;;;;;;;5.90;3.35;;;;;;;;;;6239292;22;20022;-94
2023/06/16 01:36:17;;;;;;;10.05;3.40;;;;;;;;;;6289988;22;20103;-94
2023/06/16 01:39:12;;;;;;;6.80;3.72;;;;;;;;;;6281062;22;19988;-94
2023/06/16 01:41:46;;;;;;;6.43;2.88;;;;;;;;;;6286913;22;19996;-96
2023/06/16 01:44:38;;;;;;;4.53;3.00;;;;;;;;;;6288398;22;20049;-95
2023/06/16 01:47:36;;;;;;;;;;;;;;;;;;;;;
2023/06/16 01:50:17;;;;;;;9.52;3.33;;;;;;;;;;6137574;23;20002;-95
2023/06/16 01:53:09;;;;;;;5.72;3.20;;;;;;;;;;6163097;22;20023;-94
2023/06/16 01:56:22;;;;;;;8.80;3.60;;;;;;;;;;6289595;22;20015;-94
2023/06/16 02:02:07;;;;;;;6.18;3.17;;;;;;;;;;6247205;22;20011;-95
2023/06/16 02:04:53;;;;;;;6.47;3.72;;;;;;;;;;6242849;22;20029;-95
2023/06/16 02:07:34;;;;;;;8.15;4.10;;;;;;;;;;6289218;22;20007;-95
2023/06/16 02:10:02;;;;;;;6.35;3.47;;;;;;;;;;6286907;22;19999;-95
2023/06/16 02:12:57;;;;;;;7.07;4.07;;;;;;;;;;6284921;22;20053;-95
2023/06/16 02:15:43;;;;;;;;;;;;;;;;;;;;;
2023/06/16 02:18:19;;;;;;;9.68;4.68;;;;;;;;;;6276066;22;20066;-96
2023/06/16 02:21:06;;;;;;;8.07;3.55;;;;;;;;;;6286932;22;20000;-95
2023/06/16 02:23:49;;;;;;;7.93;3.47;;;;;;;;;;6294089;22;19992;-96
2023/06/16 02:26:29;;;;;;;11.52;3.67;;;;;;;;;;6294468;22;20361;-95
2023/06/16 02:29:15;;;;;;;9.68;3.72;;;;;;;;;;6202436;22;19996;-95
2023/06/16 02:32:18;;;;;;;6.18;3.67;;;;;;;;;;6293909;22;20037;-94
2023/06/16 02:35:07;;;;;;;6.28;3.78;;;;;;;;;;6281740;22;20004;-95
2023/06/16 02:52:32;;;;;;;10.13;4.22;;;;;;;;;;6288200;22;19998;-94
2023/06/16 02:55:44;;;;;;;7.50;4.40;;;;;;;;;;6283910;22;20059;-95
2023/06/16 02:58:59;;;;;;;8.98;4.45;;;;;;;;;;6140364;23;20014;-94
2023/06/16 03:07:20;;;;;;;7.57;3.92;;;;;;;;;;6165123;22;20050;-94
2023/06/16 03:09:59;;;;;;;8.98;3.80;;;;;;;;;;6292401;22;20008;-95
2023/06/16 03:12:48;;;;;;;7.50;4.20;;;;;;;;;;6294399;22;20041;-95
2023/06/16 03:15:43;;;;;;;7.43;3.88;;;;;;;;;;6292366;22;20013;-95
2023/06/16 03:18:29;;;;;;;7.30;3.80;;;;;;;;;;6292605;22;20072;-95
2023/06/16 03:21:02;;;;;;;7.78;4.18;;;;;;;;;;6277581;22;20427;-95
2023/06/16 03:23:43;;;;;;;6.95;3.78;;;;;;;;;;6286630;22;19995;-96
2023/06/16 03:26:43;;;;;;;10.38;4.25;;;;;;;;;;6295361;22;20007;-94
2023/06/16 03:32:18;;;;;;;9.77;3.70;;;;;;;;;;6290444;22;20049;-95
2023/06/16 03:34:44;;;;;;;12.23;4.75;;;;;;;;;;6286269;22;20043;-94
2023/06/16 03:37:27;;;;;;;8.02;4.50;;;;;;;;;;6285003;22;20015;-95
2023/06/16 03:40:05;;;;;;;;;;;;;;;;;;;;;
2023/06/16 03:42:39;;;;;;;9.35;4.30;;;;;;;;;;6290277;22;20015;-94
2023/06/16 03:45:31;;;;;;;13.18;4.15;;;;;;;;;;6288888;22;19991;-94
2023/06/16 03:48:13;;;;;;;9.60;4.75;;;;;;;;;;6284319;22;20011;-94
2023/06/16 03:51:18;;;;;;;;;;;;;;;;;;;;;
2023/06/16 03:54:12;;;;;;;7.75;4.07;;;;;;;;;;6294152;22;20003;-95
2023/06/16 03:57:28;;;;;;;;;;;;;;;;;;;;;
2023/06/16 04:00:17;;;;;;;7.30;4.30;;;;;;;;;;6142732;23;20013;-95
2023/06/16 04:05:36;;;;;;;10.32;4.18;;;;;;;;;;6107953;23;20063;-96
2023/06/16 04:08:10;;;;;;;7.45;4.32;;;;;;;;;;6109844;23;20034;-95
2023/06/16 04:10:49;;;;;;;;;;;;;;;;;;;;;
2023/06/16 04:13:26;;;;;;;;;;;;;;;;;;;;;
2023/06/16 04:16:15;;;;;;;9.25;3.88;;;;;;;;;;6142299;23;20014;-96
2023/06/16 04:19:26;;;;;;;9.20;4.30;;;;;;;;;;6034203;23;20000;-95
2023/06/16 04:22:15;;;;;;;8.75;4.05;;;;;;;;;;6157478;23;20009;-95
2023/06/16 04:25:08;;;;;;;10.00;4.15;;;;;;;;;;6253076;22;19995;-94
2023/06/16 04:28:12;;;;;;;;;;;;;;;;;;;;;
2023/06/16 04:30:54;;;;;;;9.75;3.80;;;;;;;;;;6293708;22;20015;-94
2023/06/16 04:33:59;;;;;;;;;;;;;;;;;;;;;
2023/06/16 04:36:44;;;;;;;8.03;4.47;;;;;;;;;;6299683;22;20000;-94
2023/06/16 04:39:37;;;;;;;10.65;4.20;;;;;;;;;;6294487;22;20237;-95
2023/06/16 04:42:09;;;;;;;7.53;4.93;;;;;;;;;;6274296;22;19984;-95
2023/06/16 04:45:11;;;;;;;7.25;4.10;;;;;;;;;;6274584;22;20019;-94
2023/06/16 04:47:42;;;;;;;10.63;4.70;;;;;;;;;;6286482;22;20002;-95
2023/06/16 04:50:34;;;;;;;8.63;5.07;;;;;;;;;;6295587;22;19988;-94
2023/06/16 04:53:36;;;;;;;;;;;;;;;;;;;;;
2023/06/16 04:56:43;;;;;;;7.72;4.90;;;;;;;;;;6288006;22;20425;-93
2023/06/16 04:59:10;;;;;;;7.82;4.95;;;;;;;;;;6266575;22;19996;-94
2023/06/16 05:01:58;;;;;;;;;;;;;;;;;;;;;
2023/06/16 05:04:47;;;;;;;;;;;;;;;;;;;;;
2023/06/16 05:10:42;;;;;;;10.20;5.63;;;;;;;;;;6233912;22;19992;-94
2023/06/16 05:13:11;;;;;;;8.60;4.93;;;;;;;;;;6266156;22;20069;-93
2023/06/16 05:15:42;;;;;;;9.73;5.63;;;;;;;;;;6260604;22;20030;-94
2023/06/16 05:18:41;;;;;;;11.20;6.18;;;;;;;;;;6296012;22;20067;-94
2023/06/16 05:21:46;;;;;;;;;;;;;;;;;;;;;
2023/06/16 05:24:49;;;;;;;13.05;6.70;;;;;;;;;;6294204;22;20031;-96
2023/06/16 05:30:14;;;;;;;18.58;6.07;;;;;;;;;;6279852;22;20016;-95
2023/06/16 05:32:48;;;;;;;16.27;6.68;;;;;;;;;;6281635;22;20000;-95
2023/06/16 05:35:26;;;;;;;13.60;5.63;;;;;;;;;;6291278;22;20439;-95
2023/06/16 05:38:30;;;;;;;13.85;6.57;;;;;;;;;;6288875;22;20024;-94
2023/06/16 05:41:03;;;;;;;10.55;5.95;;;;;;;;;;6285506;22;19992;-94
2023/06/16 05:43:29;;;;;;;14.27;6.90;;;;;;;;;;6283455;22;20112;-94
2023/06/16 05:45:56;;;;;;;18.65;6.93;;;;;;;;;;6281382;22;20075;-94
2023/06/16 05:48:54;;;;;;;13.10;6.90;;;;;;;;;;6283863;22;20007;-95
2023/06/16 05:52:01;;;;;;;;;;;;;;;;;;;;;
2023/06/16 05:57:55;;;;;;;13.80;6.00;;;;;;;;;;6218867;22;20012;-96
2023/06/16 06:03:18;;;;;;;13.70;4.78;;;;;;;;;;6288766;22;20007;-95
2023/06/16 06:06:01;;;;;;;;;;;;;;;;;;;;;
2023/06/16 06:08:35;;;;;;;12.90;4.68;;;;;;;;;;6292287;22;20002;-93
2023/06/16 06:11:09;;;;;;;15.35;5.75;;;;;;;;;;6280100;22;20004;-94
2023/06/16 06:13:40;;;;;;;15.23;5.25;;;;;;;;;;6284874;22;19991;-94
2023/06/16 06:16:28;;;;;;;;;;;;;;;;;;;;;
2023/06/16 06:22:00;;;;;;;;;;;;;;;;;;;;;
2023/06/16 06:24:58;;;;;;;9.45;4.65;;;;;;;;;;6282960;22;20082;-94
2023/06/16 06:28:02;;;;;;;16.25;5.65;;;;;;;;;;6274337;22;20081;-94
2023/06/16 06:34:07;;;;;;;11.48;4.55;;;;;;;;;;6260033;22;20004;-94
2023/06/16 06:39:41;;;;;;;10.95;4.47;;;;;;;;;;6296302;22;20036;-95
2023/06/16 06:42:35;;;;;;;10.70;4.93;;;;;;;;;;6274451;22;20058;-95
2023/06/16 06:55:04;;;;;;;;;;;;;;;;;;;;;
2023/06/16 06:57:46;;;;;;;;;;;;;;;;;;;;;
2023/06/16 07:00:40;;;;;;;10.98;3.80;;;;;;;;;;6197117;23;20036;-95
2023/06/16 07:03:38;;;;;;;7.30;3.35;;;;;;;;;;6194363;23;20034;-95
2023/06/16 07:06:36;;;;;;;;;;;;;;;;;;;;;
2023/06/16 07:12:17;;;;;;;;;;;;;;;;;;6142321;23;20005;-96
2023/06/16 07:15:25;;;;;;;5.38;2.72;;;;;;;;;;6143288;23;20389;-95
2023/06/16 07:21:16;;;;;;;8.40;3.38;;;;;;;;;;6198023;23;19997;-94
2023/06/16 07:27:01;;;;;;;;;;;;;;;;;;;;;
2023/06/16 07:33:05;;;;;;;10.65;3.15;;;;;;;;;;6267861;22;20000;-95
2023/06/16 07:41:46;;;;;;;13.10;3.35;;;;;;;;;;6267336;22;19996;-95
2023/06/16 07:47:58;;;;;;;;;;;;;;;;;;;;;
2023/06/16 07:56:48;;;;;;;;;;;;;;;;;;;;;
2023/06/16 07:59:43;;;;;;;9.20;3.58;;;;;;;;;;6205767;23;20356;-95
2023/06/16 08:10:30;;;;;;;;;;;;;;;;;;;;;
2023/06/16 08:13:21;;;;;;;8.35;3.10;;;;;;;;;;6145357;23;20006;-94
2023/06/16 08:20:02;;;;;;;7.10;3.17;;;;;;;;;;6083902;23;19994;-95
2023/06/16 08:22:23;;;;;;;10.63;3.30;;;;;;;;;;6083966;23;20003;-95
2023/06/16 08:25:02;;;;;;;;;;;;;;;;;;;;;
2023/06/16 08:27:28;;;;;;;6.05;2.90;;;;;;;;;;6268665;23;19999;-95
2023/06/16 08:30:13;;;;;;;;;;;;;;;;;;;;;
2023/06/16 08:33:00;;;;;;;6.03;2.60;;;;;;;;;;6261058;23;19999;-94
2023/06/16 08:35:33;;;;;;;5.50;2.63;;;;;;;;;;6255442;23;20004;-95
2023/06/16 08:38:22;;;;;;;10.95;2.72;;;;;;;;;;6260544;22;20027;-94
2023/06/16 08:41:10;;;;;;;;;;;;;;;;;;;;;
2023/06/16 08:49:34;;;;;;;4.65;2.25;;;;;;;;;;6295555;22;20051;-94
2023/06/16 08:52:03;;;;;;;11.95;2.83;;;;;;;;;;6268665;22;20000;-94
2023/06/16 08:54:47;;;;;;;5.68;2.58;;;;;;;;;;6264658;22;19996;-93
2023/06/16 08:57:17;;;;;;;5.68;2.50;;;;;;;;;;6261022;22;20015;-95
2023/06/16 08:59:45;;;;;;;7.60;2.50;;;;;;;;;;6258631;22;20007;-94
2023/06/16 09:02:11;;;;;;;6.03;2.80;;;;;;;;;;6293150;22;19999;-94
2023/06/16 09:04:41;;;;;;;7.38;2.55;;;;;;;;;;6293643;22;19987;-94
2023/06/16 09:07:30;;;;;;;5.28;2.40;;;;;;;;;;6292646;22;19995;-94
2023/06/16 09:09:56;;;;;;;5.35;2.42;;;;;;;;;;6265279;22;20485;-93
2023/06/16 09:12:24;;;;;;;4.65;2.55;;;;;;;;;;6264992;22;19999;-94
2023/06/16 09:14:53;;;;;;;4.65;2.42;;;;;;;;;;6291786;22;20000;-94
2023/06/16 09:17:27;;;;;;;4.82;2.72;;;;;;;;;;6293531;22;20003;-93
2023/06/16 09:19:57;;;;;;;6.53;2.35;;;;;;;;;;6266373;22;19996;-94
2023/06/16 09:22:28;;;;;;;4.38;2.45;;;;;;;;;;6279489;22;20014;-95
2023/06/16 09:25:00;;;;;;;4.65;2.55;;;;;;;;;;6292276;22;19999;-94
2023/06/16 09:27:50;;;;;;;5.32;2.80;;;;;;;;;;6270283;22;20026;-94
2023/06/16 09:30:20;;;;;;;6.68;2.65;;;;;;;;;;6269629;22;20000;-94
2023/06/16 09:32:47;;;;;;;8.88;3.30;;;;;;;;;;6286324;22;20055;-94
2023/06/16 09:35:22;;;;;;;7.00;3.13;;;;;;;;;;6256737;22;20011;-95
2023/06/16 09:38:18;;;;;;;6.10;3.10;;;;;;;;;;6287550;22;20010;-94
2023/06/16 09:40:44;;;;;;;5.55;2.75;;;;;;;;;;6258275;22;19992;-94
2023/06/16 09:43:12;;;;;;;5.97;2.85;;;;;;;;;;6261662;22;19999;-94
2023/06/16 09:45:54;;;;;;;4.43;2.80;;;;;;;;;;6289559;22;20489;-94
2023/06/16 09:48:20;;;;;;;7.63;2.90;;;;;;;;;;6236989;22;20012;-94
2023/06/16 09:50:55;;;;;;;7.40;3.08;;;;;;;;;;6261521;22;20368;-93
2023/06/16 09:53:26;;;;;;;5.07;2.45;;;;;;;;;;6290355;22;19992;-95
2023/06/16 09:55:58;;;;;;;8.05;3.25;;;;;;;;;;6288279;22;20065;-93
2023/06/16 09:58:27;;;;;;;;;;;;;;;;;;6290072;22;20007;-94
2023/06/16 10:00:54;;;;;;;4.57;2.75;;;;;;;;;;6262114;22;19984;-94
2023/06/16 10:03:20;;;;;;;5.05;2.63;;;;;;;;;;6261622;22;20007;-94
2023/06/16 10:05:51;;;;;;;5.10;2.90;;;;;;;;;;6260017;22;20030;-93
2023/06/16 10:08:22;;;;;;;5.95;2.30;;;;;;;;;;6261366;22;20075;-94
2023/06/16 10:10:55;;;;;;;6.20;3.03;;;;;;;;;;6288926;22;20022;-94
2023/06/16 10:13:28;;;;;;;4.32;2.50;;;;;;;;;;6289020;22;19999;-94
2023/06/16 10:16:31;;;;;;;6.00;2.72;;;;;;;;;;6285973;22;20059;-94
2023/06/16 10:19:20;;;;;;;6.18;2.75;;;;;;;;;;6287861;22;20078;-94
2023/06/16 10:21:45;;;;;;;5.53;2.20;;;;;;;;;;6261653;22;20011;-93
2023/06/16 10:24:12;;;;;;;9.18;2.65;;;;;;;;;;6287886;22;20074;-94
2023/06/16 10:26:44;;;;;;;8.13;2.85;;;;;;;;;;6288111;22;20056;-94
2023/06/16 10:29:16;;;;;;;6.97;2.80;;;;;;;;;;6260707;22;20100;-95
2023/06/16 10:31:43;;;;;;;5.05;2.88;;;;;;;;;;6261386;22;20099;-94
2023/06/16 10:34:28;;;;;;;5.35;2.80;;;;;;;;;;6261806;22;20010;-95
2023/06/16 10:36:54;;;;;;;6.72;2.97;;;;;;;;;;6264314;22;20418;-94
2023/06/16 10:39:28;;;;;;;4.53;3.00;;;;;;;;;;6289543;22;20007;-93
2023/06/16 10:41:58;;;;;;;5.00;2.92;;;;;;;;;;6290758;22;20015;-92
2023/06/16 10:44:37;;;;;;;5.70;2.53;;;;;;;;;;6262927;22;20748;-94
2023/06/16 10:47:12;;;;;;;5.07;2.50;;;;;;;;;;6288475;22;20010;-94
2023/06/16 10:49:50;;;;;;;3.53;1.80;;;;;;;;;;6262775;22;20055;-94
2023/06/16 10:52:33;;;;;;;4.45;2.30;;;;;;;;;;6289755;22;20810;-95
2023/06/16 10:55:20;;;;;;;4.55;2.10;;;;;;;;;;6254347;23;20356;-94
2023/06/16 10:57:57;;;;;;;9.68;2.40;;;;;;;;;;6229413;23;20059;-94
2023/06/16 11:00:27;;;;;;;7.78;2.60;;;;;;;;;;6259436;23;20000;-94
2023/06/16 11:03:04;;;;;;;5.78;2.78;;;;;;;;;;6260134;22;20023;-94
2023/06/16 11:05:46;;;;;;;4.35;2.58;;;;;;;;;;6246659;23;20018;-94
2023/06/16 11:08:20;;;;;;;4.43;2.70;;;;;;;;;;6257667;23;20006;-94
2023/06/16 11:10:51;;;;;;;8.00;2.83;;;;;;;;;;6250545;23;19996;-95
2023/06/16 11:13:17;;;;;;;;;;;;;;;;;;6257729;23;20008;-94
2023/06/16 11:15:52;;;;;;;5.68;2.40;;;;;;;;;;6259392;23;19938;-95
2023/06/16 11:18:24;;;;;;;3.88;2.40;;;;;;;;;;6259329;23;20007;-95
2023/06/16 11:20:59;;;;;;;5.15;3.13;;;;;;;;;;6258488;23;20003;-95
2023/06/16 11:23:30;;;;;;;8.57;2.95;;;;;;;;;;6260135;23;20008;-95
2023/06/16 11:26:03;;;;;;;4.43;2.40;;;;;;;;;;6258183;23;20004;-95
2023/06/16 11:28:37;;;;;;;4.25;2.47;;;;;;;;;;6259494;23;19992;-95
2023/06/16 11:31:06;;;;;;;4.80;3.10;;;;;;;;;;6255071;23;20004;-94
2023/06/16 11:33:44;;;;;;;5.63;2.50;;;;;;;;;;6241765;23;20000;-94
2023/06/16 11:36:24;;;;;;;5.15;2.80;;;;;;;;;;6260442;23;20077;-95
2023/06/16 11:39:11;;;;;;;4.20;2.75;;;;;;;;;;6262225;23;20038;-94
2023/06/16 11:41:41;;;;;;;4.97;2.40;;;;;;;;;;6251924;23;20022;-94
2023/06/16 11:44:13;;;;;;;7.28;2.70;;;;;;;;;;6260561;23;19996;-94
2023/06/16 11:46:44;;;;;;;4.20;2.38;;;;;;;;;;6262011;23;20000;-93
2023/06/16 11:49:44;;;;;;;6.35;2.83;;;;;;;;;;6261949;23;20050;-95
2023/06/16 11:52:12;;;;;;;6.82;2.35;;;;;;;;;;6263330;23;20031;-95
2023/06/16 11:54:38;;;;;;;5.65;2.75;;;;;;;;;;6252428;23;20007;-93
2023/06/16 11:57:08;;;;;;;5.38;2.35;;;;;;;;;;6260776;23;20012;-94
2023/06/16 11:59:40;;;;;;;4.00;2.25;;;;;;;;;;6258302;23;19992;-95
2023/06/16 12:02:15;;;;;;;4.20;2.70;;;;;;;;;;6255427;22;20022;-94
2023/06/16 12:05:00;;;;;;;9.32;3.05;;;;;;;;;;6261538;23;20000;-94
2023/06/16 12:07:33;;;;;;;4.22;2.58;;;;;;;;;;6261544;23;20003;-94
2023/06/16 12:10:04;;;;;;;5.80;2.92;;;;;;;;;;6262335;23;20000;-94
2023/06/16 12:12:33;;;;;;;6.32;2.40;;;;;;;;;;6245275;23;19980;-94
2023/06/16 12:15:05;;;;;;;5.25;2.75;;;;;;;;;;6260217;23;20011;-94
2023/06/16 12:17:38;;;;;;;4.95;2.40;;;;;;;;;;6261439;23;19997;-94
2023/06/16 12:20:05;;;;;;;3.95;2.13;;;;;;;;;;6255136;23;20057;-93
2023/06/16 12:22:44;;;;;;;11.38;2.55;;;;;;;;;;6251496;23;20068;-95
2023/06/16 12:25:15;;;;;;;4.07;2.25;;;;;;;;;;6259136;23;19995;-95
2023/06/16 12:27:54;;;;;;;4.85;2.53;;;;;;;;;;6251985;23;19997;-94
2023/06/16 12:30:42;;;;;;;3.85;1.90;;;;;;;;;;6260232;23;20004;-94
2023/06/16 12:33:15;;;;;;;5.68;2.60;;;;;;;;;;6258343;23;19996;-93
2023/06/16 12:35:44;;;;;;;3.53;2.28;;;;;;;;;;6260875;23;20008;-95
2023/06/16 12:38:12;;;;;;;10.00;2.85;;;;;;;;;;6259008;23;20064;-94
2023/06/16 12:41:02;;;;;;;5.82;2.35;;;;;;;;;;6261653;23;19996;-94
2023/06/16 12:43:37;;;;;;;7.18;2.90;;;;;;;;;;6260784;23;20004;-94
2023/06/16 12:46:10;;;;;;;5.57;2.63;;;;;;;;;;6256096;23;20391;-94
2023/06/16 12:48:41;;;;;;;6.53;2.70;;;;;;;;;;6261657;23;19997;-94
2023/06/16 12:51:08;;;;;;;4.63;2.70;;;;;;;;;;6257501;23;19996;-94
2023/06/16 12:53:46;;;;;;;6.32;3.28;;;;;;;;;;6259380;23;20057;-93
2023/06/16 12:56:17;;;;;;;6.65;2.60;;;;;;;;;;6261478;23;20027;-94
2023/06/16 12:58:44;;;;;;;5.70;3.03;;;;;;;;;;6252441;23;20000;-94
2023/06/16 13:01:13;;;;;;;3.65;2.55;;;;;;;;;;6260162;23;19995;-96
2023/06/16 13:03:59;;;;;;;4.43;2.63;;;;;;;;;;6249628;23;20072;-94
2023/06/16 13:06:28;;;;;;;3.95;2.63;;;;;;;;;;6260891;22;20052;-94
2023/06/16 13:09:14;;;;;;;4.95;2.90;;;;;;;;;;6261372;23;19996;-95
2023/06/16 13:12:14;;;;;;;10.95;3.40;;;;;;;;;;6253470;23;20004;-94
2023/06/16 13:14:41;;;;;;;6.63;2.90;;;;;;;;;;6260069;23;20065;-95
2023/06/16 13:17:31;;;;;;;4.85;2.83;;;;;;;;;;6262165;22;20015;-94
2023/06/16 13:19:57;;;;;;;6.68;2.70;;;;;;;;;;6255031;23;20046;-94
2023/06/16 13:22:31;;;;;;;6.57;2.90;;;;;;;;;;6248577;23;20000;-93
2023/06/16 13:24:58;;;;;;;11.05;3.45;;;;;;;;;;6260826;22;20537;-94
2023/06/16 13:27:23;;;;;;;10.63;2.97;;;;;;;;;;6249578;23;20000;-94
2023/06/16 13:29:54;;;;;;;7.95;3.20;;;;;;;;;;6261509;23;20000;-93
2023/06/16 13:32:21;;;;;;;5.53;2.90;;;;;;;;;;6221441;23;19984;-94
2023/06/16 13:34:51;;;;;;;4.20;2.88;;;;;;;;;;6259712;23;20000;-95
2023/06/16 13:37:37;;;;;;;7.70;2.55;;;;;;;;;;6260976;23;20000;-93
2023/06/16 13:40:31;;;;;;;3.42;2.50;;;;;;;;;;6255935;23;20003;-95
2023/06/16 13:42:59;;;;;;;3.75;2.38;;;;;;;;;;6255858;23;20000;-94
2023/06/16 13:45:29;;;;;;;5.35;2.95;;;;;;;;;;6248255;23;20087;-94
2023/06/16 13:47:59;;;;;;;5.00;2.45;;;;;;;;;;6261098;23;20012;-95
2023/06/16 13:50:27;;;;;;;4.00;2.75;;;;;;;;;;6260626;23;19996;-95
2023/06/16 13:53:02;;;;;;;7.53;2.97;;;;;;;;;;6259793;23;20007;-94
2023/06/16 13:55:33;;;;;;;5.45;2.55;;;;;;;;;;6258841;23;20019;-95
2023/06/16 13:58:18;;;;;;;5.88;2.55;;;;;;;;;;6258586;23;20015;-94
2023/06/16 14:00:44;;;;;;;5.13;2.95;;;;;;;;;;6249679;23;20079;-95
2023/06/16 14:03:28;;;;;;;5.03;2.25;;;;;;;;;;6258659;22;20000;-95
2023/06/16 14:06:02;;;;;;;4.28;2.60;;;;;;;;;;6251485;23;20008;-95
2023/06/16 14:08:33;;;;;;;6.30;2.83;;;;;;;;;;6258037;23;19996;-95
2023/06/16 14:11:04;;;;;;;5.20;2.78;;;;;;;;;;6259987;22;20071;-95
2023/06/16 14:13:54;;;;;;;6.33;2.90;;;;;;;;;;6249613;23;20008;-94
2023/06/16 14:16:19;;;;;;;5.47;2.90;;;;;;;;;;6259059;23;20023;-95
2023/06/16 14:18:45;;;;;;;8.35;2.67;;;;;;;;;;6258946;23;19996;-95
2023/06/16 14:21:14;;;;;;;3.60;1.92;;;;;;;;;;6258699;23;20419;-95
2023/06/16 14:23:40;;;;;;;4.82;2.78;;;;;;;;;;6261664;23;20038;-94
2023/06/16 14:26:27;;;;;;;5.95;2.80;;;;;;;;;;6257947;23;20388;-95
2023/06/16 14:29:08;;;;;;;5.20;2.83;;;;;;;;;;6253650;23;19996;-94
2023/06/16 14:31:36;;;;;;;5.30;2.85;;;;;;;;;;6258853;23;20193;-94
2023/06/16 14:34:05;;;;;;;4.05;2.78;;;;;;;;;;6258893;23;20045;-95
2023/06/16 14:36:32;;;;;;;5.25;2.53;;;;;;;;;;6248013;23;20035;-95
2023/06/16 14:39:00;;;;;;;5.45;2.80;;;;;;;;;;6259127;23;20069;-95
2023/06/16 14:41:46;;;;;;;5.38;2.78;;;;;;;;;;6260492;23;20456;-95
2023/06/16 14:44:18;;;;;;;6.63;3.40;;;;;;;;;;6260852;23;20088;-95
2023/06/16 14:46:43;;;;;;;5.30;2.53;;;;;;;;;;6252533;23;19996;-95
2023/06/16 14:49:17;;;;;;;5.63;2.80;;;;;;;;;;6259870;22;20007;-95
2023/06/16 14:51:44;;;;;;;5.70;3.17;;;;;;;;;;6260291;23;20000;-95
2023/06/16 14:54:10;;;;;;;4.13;2.65;;;;;;;;;;6256744;23;20441;-96
2023/06/16 14:56:35;;;;;;;4.30;2.58;;;;;;;;;;6260609;22;20049;-94
2023/06/16 14:59:03;;;;;;;8.25;2.97;;;;;;;;;;6292620;22;19995;-95
2023/06/16 15:01:29;;;;;;;7.82;2.65;;;;;;;;;;6265186;22;20007;-94
2023/06/16 15:03:56;;;;;;;6.38;3.00;;;;;;;;;;6263611;22;20038;-95
2023/06/16 15:06:24;;;;;;;5.25;3.05;;;;;;;;;;6263854;22;20023;-95
2023/06/16 15:08:57;;;;;;;7.68;3.40;;;;;;;;;;6292273;22;19995;-96
2023/06/16 15:11:43;;;;;;;4.47;2.78;;;;;;;;;;6264906;22;20120;-95
2023/06/16 15:14:12;;;;;;;3.70;2.38;;;;;;;;;;6264234;22;20098;-95
2023/06/16 15:17:03;;;;;;;6.63;3.30;;;;;;;;;;6291768;22;20035;-95
2023/06/16 15:19:34;;;;;;;7.97;2.90;;;;;;;;;;6262997;22;20028;-95
2023/06/16 15:22:00;;;;;;;5.80;3.33;;;;;;;;;;6265391;22;20085;-95
2023/06/16 15:24:47;;;;;;;5.88;2.85;;;;;;;;;;6263740;22;20032;-95
2023/06/16 15:27:13;;;;;;;5.50;3.13;;;;;;;;;;6291712;22;20010;-95
2023/06/16 15:29:41;;;;;;;5.32;2.97;;;;;;;;;;6264323;22;20334;-95
2023/06/16 15:32:11;;;;;;;4.63;3.03;;;;;;;;;;6290505;22;20000;-94
2023/06/16 15:34:39;;;;;;;6.30;2.80;;;;;;;;;;6263834;22;19999;-95
2023/06/16 15:37:20;;;;;;;4.35;2.50;;;;;;;;;;6285692;22;20004;-95
2023/06/16 15:40:10;;;;;;;4.60;2.10;;;;;;;;;;6290664;22;20004;-95
2023/06/16 15:42:46;;;;;;;3.67;2.58;;;;;;;;;;6265557;22;19988;-95
2023/06/16 15:45:18;;;;;;;4.85;2.88;;;;;;;;;;6265415;22;20038;-96
2023/06/16 15:50:31;;;;;;;4.90;2.67;;;;;;;;;;6295644;22;19926;-94
2023/06/16 15:52:58;;;;;;;3.78;2.42;;;;;;;;;;6269823;22;19987;-94
2023/06/16 15:55:31;;;;;;;4.47;2.38;;;;;;;;;;6292008;22;20011;-95
2023/06/16 15:58:05;;;;;;;4.47;2.40;;;;;;;;;;6291540;22;20023;-94
2023/06/16 16:00:32;;;;;;;4.07;2.30;;;;;;;;;;6266460;22;19999;-95
2023/06/16 16:03:01;;;;;;;3.53;2.60;;;;;;;;;;6258317;22;20071;-94
2023/06/16 16:05:26;;;;;;;4.55;2.88;;;;;;;;;;6265122;22;19991;-94
2023/06/16 16:07:52;;;;;;;4.28;2.55;;;;;;;;;;6266458;22;20620;-94
2023/06/16 16:10:22;;;;;;;8.55;2.42;;;;;;;;;;6292656;22;20011;-95
2023/06/16 16:13:04;;;;;;;3.78;2.60;;;;;;;;;;6265833;22;20001;-94
2023/06/16 16:15:32;;;;;;;6.25;2.60;;;;;;;;;;6292961;22;20007;-95
2023/06/16 16:17:58;;;;;;;3.63;2.45;;;;;;;;;;6266799;22;19995;-95
2023/06/16 16:20:48;;;;;;;5.60;2.90;;;;;;;;;;6264623;22;20003;-94
2023/06/16 16:23:17;;;;;;;3.87;2.57;;;;;;;;;;6293060;22;20035;-94
2023/06/16 16:25:48;;;;;;;6.60;2.75;;;;;;;;;;6265855;22;19996;-96
2023/06/16 16:28:13;;;;;;;3.92;2.65;;;;;;;;;;6265958;22;20354;-95
2023/06/16 16:30:48;;;;;;;4.45;2.70;;;;;;;;;;6292086;22;20047;-94
2023/06/16 16:33:15;;;;;;;5.78;2.55;;;;;;;;;;6265759;22;20000;-94
2023/06/16 16:35:45;;;;;;;4.03;2.45;;;;;;;;;;6265248;22;20016;-93
2023/06/16 16:38:14;;;;;;;5.15;2.70;;;;;;;;;;6292738;22;20015;-94
2023/06/16 16:40:42;;;;;;;6.55;2.22;;;;;;;;;;6266271;22;19996;-94
2023/06/16 16:43:11;;;;;;;3.33;2.47;;;;;;;;;;6257856;22;20510;-94
2023/06/16 16:45:36;;;;;;;8.07;2.60;;;;;;;;;;6265664;22;20000;-95
2023/06/16 16:48:02;;;;;;;4.93;2.42;;;;;;;;;;6292592;22;20391;-95
2023/06/16 16:50:32;;;;;;;6.57;2.50;;;;;;;;;;6288974;22;20035;-93
2023/06/16 16:53:18;;;;;;;4.05;2.65;;;;;;;;;;6292460;22;19999;-94
2023/06/16 16:55:43;;;;;;;6.18;2.90;;;;;;;;;;6292899;22;20063;-94
2023/06/16 16:58:09;;;;;;;6.88;3.05;;;;;;;;;;6265893;22;20006;-94
2023/06/16 17:00:36;;;;;;;3.83;2.65;;;;;;;;;;6291156;22;20022;-94
2023/06/16 17:03:04;;;;;;;5.45;2.35;;;;;;;;;;6293385;22;19995;-94
2023/06/16 17:05:38;;;;;;;3.95;2.38;;;;;;;;;;6292410;22;19979;-95
2023/06/16 17:08:08;;;;;;;4.43;2.80;;;;;;;;;;6266881;22;20057;-95
2023/06/16 17:10:34;;;;;;;7.70;2.80;;;;;;;;;;6295853;22;20000;-94
2023/06/16 17:12:59;;;;;;;4.70;2.80;;;;;;;;;;6269515;22;19999;-94
2023/06/16 17:15:26;;;;;;;4.43;2.25;;;;;;;;;;6270602;22;20023;-94
2023/06/16 17:17:59;;;;;;;4.38;2.42;;;;;;;;;;6296739;22;19995;-94
2023/06/16 17:22:59;;;;;;;5.60;3.05;;;;;;;;;;6300201;22;20012;-96
2023/06/16 17:25:27;;;;;;;5.13;2.85;;;;;;;;;;6291798;22;19999;-94
2023/06/16 17:27:52;;;;;;;5.25;2.60;;;;;;;;;;6288017;22;19999;-94
2023/06/16 17:30:18;;;;;;;8.43;2.22;;;;;;;;;;6294914;22;19996;-94
2023/06/16 17:32:43;;;;;;;4.15;2.83;;;;;;;;;;6286101;22;20011;-94
2023/06/16 17:35:11;;;;;;;5.57;2.80;;;;;;;;;;6294195;22;20019;-95
2023/06/16 17:37:46;;;;;;;6.97;2.72;;;;;;;;;;6296662;22;20002;-94
2023/06/16 17:40:32;;;;;;;4.30;2.80;;;;;;;;;;6297898;22;19995;-94
2023/06/16 17:43:03;;;;;;;5.97;3.10;;;;;;;;;;6299325;22;20004;-95
2023/06/16 17:45:33;;;;;;;3.83;2.40;;;;;;;;;;6283879;22;19999;-95
2023/06/16 17:48:18;;;;;;;4.55;2.80;;;;;;;;;;6296494;22;20071;-95
2023/06/16 17:50:56;;;;;;;7.30;2.90;;;;;;;;;;6289235;22;20010;-94
2023/06/16 17:53:23;;;;;;;5.15;2.83;;;;;;;;;;6298036;22;20023;-94
2023/06/16 17:55:54;;;;;;;8.55;3.10;;;;;;;;;;6291220;22;20023;-94
2023/06/16 17:58:42;;;;;;;6.43;2.92;;;;;;;;;;6299516;22;20045;-94
2023/06/16 18:01:07;;;;;;;3.88;2.42;;;;;;;;;;6294193;22;20036;-94
2023/06/16 18:03:35;;;;;;;7.82;2.80;;;;;;;;;;6288629;22;20003;-94
2023/06/16 18:06:04;;;;;;;4.78;3.05;;;;;;;;;;6294790;22;19993;-95
2023/06/16 18:08:35;;;;;;;6.88;3.13;;;;;;;;;;6284548;22;19996;-95
2023/06/16 18:11:21;;;;;;;4.15;2.45;;;;;;;;;;6289447;22;19996;-95
2023/06/16 18:13:46;;;;;;;5.00;2.60;;;;;;;;;;6286304;22;20007;-95
2023/06/16 18:16:13;;;;;;;4.40;2.55;;;;;;;;;;6294047;22;20003;-96
2023/06/16 18:18:38;;;;;;;5.25;2.60;;;;;;;;;;6295512;22;20007;-94
2023/06/16 18:21:18;;;;;;;5.13;2.95;;;;;;;;;;6296361;22;20047;-94
2023/06/16 18:23:46;;;;;;;5.25;2.90;;;;;;;;;;6293670;22;20018;-95
2023/06/16 18:26:17;;;;;;;8.30;3.00;;;;;;;;;;6296576;22;20000;-95
2023/06/16 18:28:48;;;;;;;4.10;2.58;;;;;;;;;;6295356;22;20000;-95
2023/06/16 18:31:15;;;;;;;6.05;2.58;;;;;;;;;;6294611;22;20002;-94
2023/06/16 18:34:04;;;;;;;4.78;2.20;;;;;;;;;;6294156;22;20015;-94
2023/06/16 18:36:29;;;;;;;9.60;2.60;;;;;;;;;;6281333;22;20042;-95
2023/06/16 18:39:18;;;;;;;4.60;2.60;;;;;;;;;;6294242;22;19992;-95
2023/06/16 18:41:47;;;;;;;4.95;2.63;;;;;;;;;;6285869;22;19996;-95
2023/06/16 18:44:15;;;;;;;7.20;3.15;;;;;;;;;;6291866;22;20082;-94
2023/06/16 18:46:40;;;;;;;4.88;2.60;;;;;;;;;;6282479;22;20103;-95
2023/06/16 18:49:07;;;;;;;5.45;2.97;;;;;;;;;;6291881;22;20000;-95
2023/06/16 18:51:35;;;;;;;5.72;3.15;;;;;;;;;;6280368;22;20004;-94
2023/06/16 18:54:10;;;;;;;6.15;3.05;;;;;;;;;;6291413;22;20034;-95
2023/06/16 18:56:37;;;;;;;8.68;2.70;;;;;;;;;;6255056;22;20020;-95
2023/06/16 18:59:05;;;;;;;6.13;2.75;;;;;;;;;;6290444;22;20042;-95
2023/06/16 19:01:30;;;;;;;8.80;3.30;;;;;;;;;;6265755;22;19995;-94
2023/06/16 19:04:01;;;;;;;6.05;2.95;;;;;;;;;;6287128;22;20097;-94